Weather at El Gora Airport

Public forecast

Using degrees Celsius for public forecast. Weather courtesy of forecast.io.

Closest aviation weather report (METAR) to El Gora Airport

Report is more than 6 hours old.

Closest report is El Arish International Airport, 15.2 nm (28.2 km) W. Retrieved 2020/12/20 13:00 UTC (2 months ago):

HEAR 201300Z N CHECK TEXT NEW ENDING ADDED OEJNYFYX

Aviation forecast (TAF) for El Gora Airport

Forecast is more than 12 hours old.

Retrieved 2021-02-27 00:00 UTC (3 days ago):

TAF HEGR 242300Z 2500/2606 VRB03KT 9999 SCT025 BECMG 2507/0509 29010KT BECMG 2518/2520 VRB03KT